createdAt,value
2018-09-27T00:04:21.298Z,6.72
2018-09-27T00:09:24.628Z,4.75
2018-09-27T00:14:27.957Z,6.50
2018-09-27T00:19:31.340Z,8.03
2018-09-27T00:24:34.666Z,5.37
2018-09-27T00:29:37.999Z,5.30
2018-09-27T00:34:41.342Z,5.10
2018-09-27T00:39:44.647Z,5.60
2018-09-27T00:44:47.936Z,6.20
2018-09-27T00:49:51.228Z,5.78
2018-09-27T00:54:54.524Z,5.58
2018-09-27T00:59:57.875Z,4.95
2018-09-27T01:05:01.190Z,6.35
2018-09-27T01:10:04.564Z,5.42
2018-09-27T01:15:07.893Z,5.00
2018-09-27T01:20:11.403Z,5.37
2018-09-27T01:25:14.736Z,4.83
2018-09-27T01:30:18.000Z,5.40
2018-09-27T01:35:21.296Z,5.10
2018-09-27T01:40:25.669Z,5.20
2018-09-27T01:45:29.012Z,4.78
2018-09-27T01:50:32.424Z,4.33
2018-09-27T01:55:35.891Z,7.45
2018-09-27T02:00:39.303Z,9.48
2018-09-27T02:05:42.608Z,7.20
2018-09-27T02:10:46.018Z,7.20
2018-09-27T02:15:49.667Z,5.03
2018-09-27T02:20:52.982Z,6.35
2018-09-27T02:25:56.503Z,7.00
2018-09-27T02:30:59.765Z,6.30
2018-09-27T02:36:03.125Z,6.78
2018-09-27T02:41:06.433Z,6.75
2018-09-27T02:46:09.725Z,5.95
2018-09-27T02:51:13.057Z,5.33
2018-09-27T02:56:16.748Z,5.07
2018-09-27T03:01:21.088Z,6.60
2018-09-27T03:06:24.481Z,8.20
2018-09-27T03:11:27.948Z,5.05
2018-09-27T03:16:34.130Z,6.42
2018-09-27T03:21:37.538Z,6.72
2018-09-27T03:26:42.345Z,4.90
2018-09-27T03:31:45.701Z,4.60
2018-09-27T03:36:50.906Z,4.70
2018-09-27T03:41:55.999Z,5.45
2018-09-27T03:47:00.343Z,5.12
2018-09-27T03:52:03.685Z,5.22
2018-09-27T03:57:06.995Z,6.50
2018-09-27T04:02:10.259Z,5.67
2018-09-27T04:07:13.633Z,5.07
2018-09-27T04:12:16.948Z,5.97
2018-09-27T04:17:20.204Z,6.17
2018-09-27T04:22:23.573Z,8.50
2018-09-27T04:27:26.866Z,9.75
2018-09-27T04:32:30.230Z,8.80
2018-09-27T04:37:33.537Z,5.42
2018-09-27T04:42:37.482Z,7.08
2018-09-27T04:47:40.812Z,9.03
2018-09-27T04:52:44.107Z,5.78
2018-09-27T04:57:47.468Z,5.90
2018-09-27T05:02:50.845Z,6.85
2018-09-27T05:07:55.680Z,5.65
2018-09-27T05:12:58.990Z,8.40
2018-09-27T05:18:02.299Z,5.92
2018-09-27T05:23:05.606Z,5.85
2018-09-27T05:28:09.085Z,5.87
2018-09-27T05:33:12.421Z,5.00
2018-09-27T05:38:15.797Z,5.72
2018-09-27T05:43:19.096Z,5.35
2018-09-27T05:48:22.428Z,8.50
2018-09-27T05:53:25.776Z,8.40
2018-09-27T05:58:29.448Z,7.28
2018-09-27T06:03:32.945Z,9.47
2018-09-27T06:08:36.354Z,7.35
2018-09-27T06:13:39.961Z,6.30
2018-09-27T06:18:43.547Z,5.83
2018-09-27T06:23:46.919Z,5.75
2018-09-27T06:28:50.339Z,6.03
2018-09-27T06:33:53.773Z,7.03
2018-09-27T06:38:57.318Z,6.92
2018-09-27T06:44:00.720Z,7.17
2018-09-27T06:49:04.745Z,5.85
2018-09-27T06:54:10.477Z,6.30
2018-09-27T06:59:13.917Z,9.63
2018-09-27T07:04:17.640Z,6.20
2018-09-27T07:09:21.281Z,5.40
2018-09-27T07:14:25.378Z,5.25
2018-09-27T07:19:29.011Z,5.50
2018-09-27T07:24:32.587Z,7.05
2018-09-27T07:29:35.936Z,5.40
2018-09-27T07:34:40.863Z,5.50
2018-09-27T07:39:44.311Z,9.73
2018-09-27T07:44:47.705Z,8.55
2018-09-27T07:49:51.170Z,5.35
2018-09-27T07:54:54.570Z,6.90
2018-09-27T07:59:58.002Z,5.83
2018-09-27T08:05:01.506Z,6.20
2018-09-27T08:10:05.040Z,6.30
2018-09-27T08:15:08.657Z,7.80
2018-09-27T08:20:12.005Z,9.18
2018-09-27T08:25:25.894Z,7.80
2018-09-27T08:30:29.411Z,6.28
2018-09-27T08:35:32.881Z,9.00
2018-09-27T08:40:39.966Z,5.80
2018-09-27T08:45:43.639Z,7.83
2018-09-27T08:50:47.357Z,5.77
2018-09-27T08:55:51.191Z,7.33
2018-09-27T09:00:54.599Z,6.40
2018-09-27T09:05:58.038Z,5.78
2018-09-27T09:11:01.654Z,8.20
2018-09-27T09:16:05.513Z,7.72
2018-09-27T09:21:10.093Z,10.35
2018-09-27T09:26:14.356Z,11.15
2018-09-27T09:31:20.094Z,13.40
2018-09-27T09:36:23.522Z,12.98
2018-09-27T09:41:27.014Z,11.07
2018-09-27T09:46:30.553Z,10.30
2018-09-27T09:51:34.407Z,10.60
2018-09-27T09:56:38.278Z,11.48
2018-09-27T10:01:45.756Z,10.63
2018-09-27T10:06:49.144Z,8.68
2018-09-27T10:11:52.696Z,9.90
2018-09-27T10:16:56.085Z,9.18
2018-09-27T10:21:59.542Z,11.57
2018-09-27T10:27:03.044Z,10.60
2018-09-27T10:32:06.589Z,10.73
2018-09-27T10:37:10.248Z,8.43
2018-09-27T10:42:13.674Z,11.68
2018-09-27T10:47:17.086Z,6.10
2018-09-27T10:52:20.639Z,7.80
2018-09-27T10:57:24.037Z,7.40
2018-09-27T11:02:28.421Z,8.77
2018-09-27T11:07:32.175Z,8.83
2018-09-27T11:12:35.821Z,7.03
2018-09-27T11:17:39.668Z,7.20
2018-09-27T11:22:43.101Z,6.17
2018-09-27T11:27:46.497Z,7.05
2018-09-27T11:32:49.788Z,4.75
2018-09-27T11:37:53.186Z,4.40
2018-09-27T11:42:56.778Z,4.10
2018-09-27T11:48:01.128Z,3.90
2018-09-27T11:53:04.595Z,4.30
2018-09-27T11:58:08.123Z,4.53
2018-09-27T12:03:12.303Z,3.10
2018-09-27T12:08:15.589Z,5.28
2018-09-27T12:13:19.045Z,2.75
2018-09-27T12:18:22.413Z,3.30
2018-09-27T12:23:25.802Z,3.25
2018-09-27T12:28:29.169Z,4.37
2018-09-27T12:33:33.260Z,2.50
2018-09-27T12:38:55.130Z,3.60
2018-09-27T12:44:01.419Z,2.80
2018-09-27T12:49:24.552Z,2.75
2018-09-27T13:21:54.961Z,3.03
2018-09-27T13:26:58.352Z,3.50
2018-09-27T13:32:01.605Z,3.15
2018-09-27T13:37:05.351Z,2.80
2018-09-27T13:42:08.655Z,3.90
2018-09-27T13:47:12.117Z,3.50
2018-09-27T13:52:16.157Z,5.37
2018-09-27T13:57:19.627Z,4.45
2018-09-27T14:02:22.923Z,3.80
2018-09-27T14:07:26.226Z,2.97
2018-09-27T14:12:30.692Z,3.47
2018-09-27T14:17:34.450Z,5.07
2018-09-27T14:22:37.856Z,4.00
2018-09-27T14:27:41.207Z,5.70
2018-09-27T14:32:44.525Z,3.67
2018-09-27T14:37:47.862Z,4.33
2018-09-27T14:42:51.196Z,5.80
2018-09-27T14:47:54.653Z,3.87
2018-09-27T14:52:57.922Z,4.50
2018-09-27T14:58:01.361Z,4.75
2018-09-27T15:03:04.770Z,2.95
2018-09-27T15:08:08.130Z,6.13
2018-09-27T15:13:11.391Z,5.27
2018-09-27T15:18:14.698Z,5.33
2018-09-27T15:23:19.466Z,4.17
2018-09-27T15:28:22.774Z,7.00
2018-09-27T15:33:26.067Z,4.63
2018-09-27T15:38:29.464Z,5.10
2018-09-27T15:43:32.767Z,4.72
2018-09-27T15:48:36.145Z,8.48
2018-09-27T15:53:39.652Z,6.20
2018-09-27T15:58:43.054Z,7.05
2018-09-27T16:09:25.249Z,6.70
2018-09-27T16:14:28.483Z,8.03
2018-09-27T16:19:32.037Z,5.40
2018-09-27T16:24:36.483Z,8.25
2018-09-27T16:29:39.904Z,4.50
2018-09-27T16:34:49.345Z,6.08
2018-09-27T16:39:52.923Z,5.43
2018-09-27T16:44:56.156Z,4.95
2018-09-27T16:49:59.468Z,4.20
2018-09-27T16:55:02.752Z,3.90
2018-09-27T17:00:06.741Z,8.13
2018-09-27T17:05:10.023Z,6.00
2018-09-27T17:10:13.384Z,14.50
2018-09-27T17:15:16.848Z,7.80
2018-09-27T17:20:20.312Z,6.17
2018-09-27T17:25:24.141Z,5.67
2018-09-27T17:30:27.589Z,6.58
2018-09-27T17:35:31.132Z,7.15
2018-09-27T17:40:34.579Z,7.47
2018-09-27T18:06:11.438Z,4.17
2018-09-27T18:11:15.723Z,4.00
2018-09-27T18:16:19.576Z,6.00
2018-09-27T18:21:22.991Z,15.30
2018-09-27T18:26:28.078Z,6.40
2018-09-27T18:31:33.133Z,5.20
2018-09-27T18:36:36.481Z,4.90
2018-09-27T18:41:39.851Z,4.40
2018-09-27T18:51:44.496Z,5.30
2018-09-27T18:56:47.853Z,11.25
2018-09-27T19:01:51.186Z,9.77
2018-09-27T19:06:54.539Z,7.50
2018-09-27T19:11:57.837Z,5.95
2018-09-27T19:22:47.601Z,6.30
2018-09-27T19:27:51.577Z,7.75
2018-09-27T19:33:01.842Z,5.58
2018-09-27T19:38:12.417Z,4.50
2018-09-27T19:48:32.383Z,11.83
2018-09-27T19:53:42.317Z,7.40
2018-09-27T19:58:45.981Z,8.57
2018-09-27T20:03:49.681Z,9.55
2018-09-27T20:08:53.564Z,10.85
2018-09-27T20:13:56.974Z,9.63
2018-09-27T20:19:00.317Z,13.80
2018-09-27T20:24:03.936Z,18.57
2018-09-27T20:29:07.369Z,11.28
2018-09-27T20:34:11.095Z,12.33
2018-09-27T20:39:15.809Z,14.93
2018-09-27T20:44:19.404Z,11.50
2018-09-27T20:49:22.882Z,10.58
2018-09-27T20:54:26.294Z,8.23
2018-09-27T20:59:31.676Z,8.20
2018-09-27T21:04:35.129Z,8.33
2018-09-27T21:09:40.851Z,8.60
2018-09-27T21:14:44.393Z,10.40
2018-09-27T21:19:47.845Z,11.80
2018-09-27T21:24:51.265Z,9.50
2018-09-27T21:29:55.030Z,10.95
2018-09-27T21:35:00.222Z,8.03
2018-09-27T21:40:03.649Z,9.00
2018-09-27T21:45:07.100Z,8.90
2018-09-27T21:50:10.631Z,8.97
2018-09-27T21:55:14.101Z,9.70
2018-09-27T22:00:18.061Z,11.60
2018-09-27T22:05:21.544Z,11.68
2018-09-27T22:10:25.151Z,8.90
2018-09-27T22:15:28.760Z,9.78
2018-09-27T22:20:32.196Z,9.03
2018-09-27T22:25:35.796Z,17.92
2018-09-27T22:30:39.299Z,12.73
2018-09-27T22:35:42.682Z,9.27
2018-09-27T22:40:46.147Z,10.80
2018-09-27T22:45:49.629Z,7.57
2018-09-27T22:50:53.097Z,7.33
2018-09-27T22:55:57.156Z,6.57
2018-09-27T23:01:00.590Z,7.42
2018-09-27T23:06:03.983Z,5.90
2018-09-27T23:11:07.469Z,5.97
2018-09-27T23:16:10.991Z,7.10
2018-09-27T23:21:14.473Z,6.65
2018-09-27T23:26:17.955Z,6.37
2018-09-27T23:31:21.422Z,6.45
2018-09-27T23:36:24.870Z,8.70
2018-09-27T23:41:28.250Z,5.17
2018-09-27T23:46:31.691Z,5.42
2018-09-27T23:51:35.617Z,7.45
2018-09-27T23:56:40.564Z,7.80
